Time;durP1;ratioP1;P1;durP2;ratioP2;P2;SDS_P1;SDS_P2;PMS_P1;PMS_P2;Temp;Humidity;BMP_temperature;BMP_pressure;BME280_temperature;BME280_humidity;BME280_pressure;Samples;Min_cycle;Max_cycle;Signal;HPM_P1;HPM_P2
2021/06/09 00:00:39;;;;;;;4.97;2.50;;;;;;;22.85;48.59;102133.38;5072947;28;20074;-59
2021/06/09 00:03:05;;;;;;;4.40;2.67;;;;;;;22.83;48.43;102126.34;5072718;28;20033;-59
2021/06/09 00:05:30;;;;;;;4.35;2.20;;;;;;;22.83;48.51;102131.66;5072162;28;20069;-58
2021/06/09 00:07:55;;;;;;;3.78;2.30;;;;;;;22.80;48.42;102123.94;5072731;28;20040;-58
2021/06/09 00:10:21;;;;;;;4.25;2.30;;;;;;;22.83;48.54;102123.69;5072849;28;20451;-58
2021/06/09 00:12:49;;;;;;;4.03;2.42;;;;;;;22.82;48.49;102126.47;5072019;28;20460;-59
2021/06/09 00:15:16;;;;;;;5.88;2.50;;;;;;;22.81;48.44;102127.44;5072379;28;20027;-59
2021/06/09 00:17:42;;;;;;;4.53;2.38;;;;;;;22.82;48.51;102131.78;5072642;28;20075;-59
2021/06/09 00:20:10;;;;;;;3.83;2.38;;;;;;;22.81;48.15;102125.63;5071636;28;20021;-59
2021/06/09 00:22:35;;;;;;;4.60;2.28;;;;;;;22.79;48.50;102124.91;5072595;28;20107;-60
2021/06/09 00:25:02;;;;;;;4.20;2.28;;;;;;;22.78;48.50;102128.56;5072869;28;20059;-60
2021/06/09 00:27:30;;;;;;;4.57;2.50;;;;;;;22.79;48.40;102127.56;5071237;28;20031;-59
2021/06/09 00:29:55;;;;;;;4.38;2.53;;;;;;;22.79;48.40;102129.38;5072673;28;20029;-59
2021/06/09 00:32:21;;;;;;;3.93;2.50;;;;;;;22.78;48.48;102125.03;5072242;28;20090;-59
2021/06/09 00:34:46;;;;;;;4.03;2.50;;;;;;;22.77;48.25;102126.84;5071550;28;20277;-59
2021/06/09 00:37:11;;;;;;;4.45;2.60;;;;;;;22.76;48.32;102127.81;5072239;28;20119;-59
2021/06/09 00:39:37;;;;;;;6.00;3.17;;;;;;;22.76;48.16;102127.81;5072700;28;20025;-59
2021/06/09 00:42:02;;;;;;;4.00;2.50;;;;;;;22.76;48.44;102121.66;5071410;28;20340;-59
2021/06/09 00:44:30;;;;;;;3.90;2.65;;;;;;;22.76;48.44;102127.81;5072600;28;20104;-60
2021/06/09 00:46:58;;;;;;;5.15;2.40;;;;;;;22.75;48.17;102128.78;5072435;28;20024;-59
2021/06/09 00:49:23;;;;;;;5.65;2.88;;;;;;;22.76;48.32;102126.97;5071009;28;20028;-59
2021/06/09 00:51:51;;;;;;;4.75;2.45;;;;;;;22.75;48.36;102120.81;5072278;28;20032;-59
2021/06/09 00:54:16;;;;;;;4.38;2.70;;;;;;;22.75;48.46;102125.31;5071105;28;20036;-59
2021/06/09 00:56:42;;;;;;;4.83;2.73;;;;;;;22.74;48.38;102121.78;5072060;28;20028;-59
2021/06/09 00:59:07;;;;;;;5.00;2.40;;;;;;;22.75;48.38;102127.97;5071907;28;20274;-59
2021/06/09 01:01:34;;;;;;;4.07;2.38;;;;;;;22.74;48.28;102123.59;5071312;28;20340;-59
2021/06/09 01:04:00;;;;;;;4.25;2.70;;;;;;;22.72;48.15;102121.06;5072019;28;20024;-59
2021/06/09 01:06:26;;;;;;;4.30;2.47;;;;;;;22.73;48.13;102121.91;5071769;28;20143;-59
2021/06/09 01:08:53;;;;;;;5.13;2.45;;;;;;;22.72;48.29;102121.06;5071470;28;20020;-59
2021/06/09 01:11:20;;;;;;;4.10;2.50;;;;;;;22.72;48.31;102118.41;5072067;28;20078;-59
2021/06/09 01:13:47;;;;;;;5.55;2.95;;;;;;;22.72;48.27;102123.72;5072152;28;20020;-59
2021/06/09 01:16:13;;;;;;;5.75;2.88;;;;;;;22.71;48.30;102116.72;5070759;28;20399;-60
2021/06/09 01:18:39;;;;;;;4.57;2.40;;;;;;;22.71;48.31;102118.53;5071898;28;20017;-58
2021/06/09 01:21:05;;;;;;;3.90;2.58;;;;;;;22.72;48.29;102109.59;5071892;28;20032;-58
2021/06/09 01:23:31;;;;;;;4.25;2.70;;;;;;;22.71;48.31;102113.22;5071541;28;20140;-57
2021/06/09 01:25:57;;;;;;;4.68;2.70;;;;;;;22.68;48.26;102109.00;5072177;28;20039;-60
2021/06/09 01:28:23;;;;;;;3.45;2.20;;;;;;;22.70;48.31;102106.22;5053589;28;20335;-58
2021/06/09 01:30:49;;;;;;;4.22;2.47;;;;;;;22.69;48.23;102109.84;5071166;28;20028;-59
2021/06/09 01:33:16;;;;;;;3.65;2.47;;;;;;;22.69;48.14;102107.19;5071500;28;20503;-58
2021/06/09 01:35:43;;;;;;;4.95;2.72;;;;;;;22.69;47.91;102104.53;5071777;28;20505;-59
2021/06/09 01:38:08;;;;;;;4.38;2.53;;;;;;;22.68;48.24;102103.69;5070793;28;20048;-58
2021/06/09 01:40:34;;;;;;;3.97;2.70;;;;;;;22.68;48.13;102102.84;5075747;28;20032;-59
2021/06/09 01:43:02;;;;;;;3.63;2.30;;;;;;;22.67;47.99;102096.69;5075912;28;20490;-58
2021/06/09 01:45:30;;;;;;;4.22;2.80;;;;;;;22.67;48.18;102094.03;5075107;28;20032;-58
2021/06/09 01:48:02;;;;;;;4.18;2.60;;;;;;;22.67;48.24;102109.97;5076051;28;20024;-58
2021/06/09 01:50:29;;;;;;;4.15;2.60;;;;;;;22.66;48.12;102097.66;5075078;28;20078;-59
2021/06/09 01:52:55;;;;;;;3.78;2.40;;;;;;;22.66;48.15;102097.66;5075729;28;20020;-58
2021/06/09 01:55:23;;;;;;;4.50;2.75;;;;;;;22.67;48.17;102107.31;5074850;28;20104;-58
2021/06/09 01:57:49;;;;;;;4.57;2.63;;;;;;;22.65;48.22;102103.91;5074857;28;20243;-58
2021/06/09 02:00:19;;;;;;;4.63;2.90;;;;;;;22.66;48.07;102104.78;5075129;28;20020;-59
2021/06/09 02:02:44;;;;;;;4.55;2.78;;;;;;;22.65;47.97;102109.22;5075673;28;20071;-59
2021/06/09 02:05:11;;;;;;;4.90;2.70;;;;;;;22.65;48.10;102114.53;5074579;28;20444;-58
2021/06/09 02:07:38;;;;;;;4.43;2.80;;;;;;;22.63;48.04;102117.31;5075330;28;20048;-59
2021/06/09 02:10:16;;;;;;;4.63;2.65;;;;;;;22.63;47.89;102114.66;5075013;28;20036;-60
2021/06/09 02:12:47;;;;;;;5.75;2.90;;;;;;;22.63;48.09;102117.31;5074487;28;20025;-59
2021/06/09 02:15:16;;;;;;;4.57;2.92;;;;;;;22.63;47.97;102112.00;5074904;28;20073;-58
2021/06/09 02:17:57;;;;;;;4.82;2.85;;;;;;;22.62;48.29;102110.34;5075237;28;20029;-57
2021/06/09 02:20:27;;;;;;;4.93;3.17;;;;;;;22.63;48.16;102111.19;5074106;28;20032;-59
2021/06/09 02:22:54;;;;;;;4.10;2.63;;;;;;;22.60;48.08;102109.59;5075098;28;20029;-60
2021/06/09 02:25:20;;;;;;;4.47;2.55;;;;;;;22.60;47.96;102106.13;5074604;28;20020;-58
2021/06/09 02:27:45;;;;;;;3.85;2.60;;;;;;;22.61;48.08;102107.81;5074475;28;20024;-59
2021/06/09 02:30:15;;;;;;;4.00;2.60;;;;;;;22.62;48.02;102104.16;5074911;28;20380;-59
2021/06/09 02:32:43;;;;;;;4.35;2.70;;;;;;;22.60;48.11;102106.94;5074227;28;20025;-59
2021/06/09 02:35:13;;;;;;;4.10;2.78;;;;;;;22.60;47.95;102106.13;5074567;28;20020;-59
2021/06/09 02:37:40;;;;;;;4.53;2.67;;;;;;;22.59;47.80;102107.94;5074752;28;20077;-59
2021/06/09 02:40:08;;;;;;;4.00;2.58;;;;;;;22.59;48.05;102099.13;5073513;28;20040;-60
2021/06/09 02:42:35;;;;;;;5.07;2.92;;;;;;;22.58;47.99;102103.56;5074818;28;20031;-59
2021/06/09 02:45:01;;;;;;;5.18;2.53;;;;;;;22.58;48.04;102092.94;5074710;28;20020;-59
2021/06/09 02:47:26;;;;;;;5.50;3.22;;;;;;;22.59;47.96;102094.66;5073780;28;20449;-59
2021/06/09 02:49:55;;;;;;;4.20;2.80;;;;;;;22.57;48.01;102095.72;5074387;28;20464;-59
2021/06/09 02:52:24;;;;;;;4.88;2.83;;;;;;;22.58;47.86;102097.44;5073493;28;20380;-59
2021/06/09 02:55:11;;;;;;;4.05;2.50;;;;;;;22.58;47.94;102097.44;5074027;28;20029;-59
2021/06/09 02:57:51;;;;;;;5.32;2.83;;;;;;;22.57;47.92;102099.25;5074288;28;20028;-59
2021/06/09 03:00:23;;;;;;;5.07;2.95;;;;;;;22.57;48.05;102096.59;5074172;28;20037;-60
2021/06/09 03:03:13;;;;;;;5.22;3.00;;;;;;;22.57;48.08;102099.25;5073486;28;20020;-59
2021/06/09 03:05:51;;;;;;;5.25;3.10;;;;;;;22.57;48.00;102101.03;5074314;28;20044;-59
2021/06/09 03:08:30;;;;;;;6.13;3.05;;;;;;;22.57;47.94;102098.38;5073007;28;20467;-58
2021/06/09 03:11:40;;;;;;;5.07;3.03;;;;;;;22.56;48.06;102102.03;5074145;28;20027;-59
2021/06/09 03:17:15;;;;;;;5.35;3.05;;;;;;;22.54;47.92;102099.50;5073353;28;20039;-59
2021/06/09 03:19:50;;;;;;;5.55;2.75;;;;;;;22.55;48.07;102100.34;5074107;28;20428;-59
2021/06/09 03:22:26;;;;;;;5.55;2.85;;;;;;;22.53;47.90;102096.97;5072956;28;20024;-59
2021/06/09 03:24:58;;;;;;;4.47;2.88;;;;;;;22.53;47.94;102097.81;5073917;28;20029;-59
2021/06/09 03:27:59;;;;;;;5.30;3.20;;;;;;;22.54;48.12;102106.59;5073139;28;20017;-60
2021/06/09 03:30:29;;;;;;;4.10;2.85;;;;;;;22.54;47.92;102109.25;5065504;28;20107;-59
2021/06/09 03:33:02;;;;;;;4.68;2.83;;;;;;;22.53;47.97;102096.97;5073724;28;20027;-59
2021/06/09 03:35:47;;;;;;;5.03;2.90;;;;;;;22.52;48.02;102101.41;5073848;28;20024;-58
2021/06/09 03:38:17;;;;;;;5.35;3.15;;;;;;;22.53;47.88;102103.13;5072352;28;20036;-58
2021/06/09 03:40:45;;;;;;;4.60;2.97;;;;;;;22.51;47.88;102099.75;5073823;28;20024;-58
2021/06/09 03:43:13;;;;;;;4.80;3.15;;;;;;;22.51;47.75;102098.88;5072173;28;20388;-59
2021/06/09 03:45:43;;;;;;;4.85;3.03;;;;;;;22.52;47.94;102092.59;5073447;28;20024;-59
2021/06/09 03:48:12;;;;;;;4.53;3.22;;;;;;;22.51;47.94;102098.88;5073225;28;20055;-58
2021/06/09 03:50:39;;;;;;;5.32;3.10;;;;;;;22.51;47.81;102088.25;5072546;28;20460;-58
2021/06/09 03:53:06;;;;;;;4.82;3.05;;;;;;;22.51;47.84;102089.13;5073170;28;20052;-58
2021/06/09 03:55:37;;;;;;;5.18;3.25;;;;;;;22.49;47.88;102087.53;5073266;28;20104;-59
2021/06/09 03:58:07;;;;;;;5.35;3.45;;;;;;;22.48;47.96;102084.06;5072438;28;20092;-59
2021/06/09 04:00:32;;;;;;;5.85;3.53;;;;;;;22.50;47.91;102086.59;5073645;28;20058;-58
2021/06/09 04:02:59;;;;;;;4.65;3.30;;;;;;;22.50;47.96;102083.94;5073165;28;20103;-59
2021/06/09 04:05:27;;;;;;;4.93;3.10;;;;;;;22.49;47.98;102085.72;5072407;28;20070;-59
2021/06/09 04:07:57;;;;;;;4.88;3.10;;;;;;;22.49;47.79;102092.84;5073198;28;20045;-59
2021/06/09 04:10:23;;;;;;;4.47;3.08;;;;;;;22.50;47.84;102086.59;5073123;28;20111;-58
2021/06/09 04:12:48;;;;;;;4.75;3.38;;;;;;;22.48;48.06;102081.41;5072242;28;20052;-58
2021/06/09 04:15:14;;;;;;;5.38;3.22;;;;;;;22.49;47.78;102077.75;5072424;28;20066;-59
2021/06/09 04:17:43;;;;;;;4.60;3.30;;;;;;;22.50;47.81;102086.59;5072502;28;20024;-59
2021/06/09 04:20:12;;;;;;;5.90;3.33;;;;;;;22.49;48.06;102083.06;5071581;28;20372;-59
2021/06/09 04:22:38;;;;;;;4.20;3.30;;;;;;;22.50;47.84;102084.75;5072611;28;20066;-58
2021/06/09 04:25:06;;;;;;;4.32;3.17;;;;;;;22.49;47.92;102084.88;5072250;28;20420;-57
2021/06/09 04:27:35;;;;;;;5.00;3.28;;;;;;;22.49;48.04;102085.72;5071582;28;20417;-58
2021/06/09 04:30:01;;;;;;;4.03;3.00;;;;;;;22.43;48.01;102073.78;5072457;28;20032;-58
2021/06/09 04:32:27;;;;;;;4.88;3.25;;;;;;;22.48;47.98;102081.41;5071784;28;20089;-58
2021/06/09 04:34:53;;;;;;;4.57;3.38;;;;;;;22.50;47.98;102086.59;5072586;28;20423;-58
2021/06/09 04:37:24;;;;;;;4.30;3.10;;;;;;;22.49;47.98;102090.19;5071887;28;20444;-57
2021/06/09 04:39:53;;;;;;;4.60;2.80;;;;;;;22.49;48.16;102083.06;5071640;28;20078;-58
2021/06/09 04:42:20;;;;;;;4.90;3.40;;;;;;;22.49;48.00;102088.38;5071905;28;20044;-59
2021/06/09 04:44:46;;;;;;;4.80;3.00;;;;;;;22.49;48.03;102080.41;5072083;28;20047;-59
2021/06/09 04:47:13;;;;;;;5.90;3.40;;;;;;;22.49;48.02;102083.06;5071348;28;20456;-59
2021/06/09 04:49:44;;;;;;;4.88;3.20;;;;;;;22.49;48.17;102083.06;5072394;28;20074;-58
2021/06/09 04:52:10;;;;;;;4.90;3.50;;;;;;;22.49;48.08;102084.88;5071847;28;20051;-58
2021/06/09 04:54:39;;;;;;;4.55;3.40;;;;;;;22.49;48.04;102083.06;5071130;28;20372;-58
2021/06/09 04:57:06;;;;;;;4.53;3.17;;;;;;;22.50;48.10;102086.59;5071691;28;20035;-58
2021/06/09 04:59:32;;;;;;;6.18;3.40;;;;;;;22.49;47.96;102082.22;5072086;28;20024;-58
2021/06/09 05:01:58;;;;;;;5.30;3.50;;;;;;;22.49;48.10;102082.22;5071342;28;20051;-59
2021/06/09 05:04:23;;;;;;;4.90;3.30;;;;;;;22.50;48.03;102086.59;5072105;28;20078;-58
2021/06/09 05:06:49;;;;;;;4.80;3.22;;;;;;;22.49;48.10;102083.06;5072031;28;20041;-59
2021/06/09 05:09:14;;;;;;;4.80;3.50;;;;;;;22.50;48.09;102081.28;5071094;28;20066;-58
2021/06/09 05:11:49;;;;;;;4.97;3.47;;;;;;;22.51;48.20;102085.59;5072091;28;20027;-59
2021/06/09 05:14:30;;;;;;;4.47;3.28;;;;;;;22.50;48.14;102087.41;5071628;28;20028;-59
2021/06/09 05:17:05;;;;;;;4.90;3.45;;;;;;;22.50;48.12;102083.94;5072186;28;20039;-59
2021/06/09 05:19:33;;;;;;;5.97;3.60;;;;;;;22.49;48.12;102080.41;5071951;28;20021;-59
2021/06/09 05:22:13;;;;;;;5.55;3.47;;;;;;;22.50;48.21;102086.59;5071499;28;20099;-58
2021/06/09 05:24:39;;;;;;;4.63;3.25;;;;;;;22.51;48.24;102085.59;5071936;28;20480;-58
2021/06/09 05:27:06;;;;;;;5.03;3.42;;;;;;;22.51;47.94;102090.91;5071902;28;20020;-59
2021/06/09 05:29:34;;;;;;;5.32;3.70;;;;;;;22.51;48.26;102097.09;5071335;28;20016;-59
2021/06/09 05:32:00;;;;;;;4.65;3.55;;;;;;;22.52;48.23;102093.44;5071985;28;20024;-58
2021/06/09 05:34:26;;;;;;;5.05;3.33;;;;;;;22.52;48.07;102092.59;5071531;28;20492;-58
2021/06/09 05:36:52;;;;;;;5.20;3.45;;;;;;;22.53;48.15;102089.84;5071030;28;20115;-59
2021/06/09 05:39:18;;;;;;;4.75;3.30;;;;;;;22.52;48.03;102087.28;5071309;28;20452;-59
2021/06/09 05:41:47;;;;;;;5.47;3.25;;;;;;;22.54;48.23;102098.63;5071772;28;20043;-58
2021/06/09 05:44:16;;;;;;;4.60;3.38;;;;;;;22.52;48.42;102089.94;5070412;28;20020;-58
2021/06/09 05:46:43;;;;;;;4.38;3.28;;;;;;;22.54;48.28;102090.66;5071815;28;20028;-58
2021/06/09 05:49:18;;;;;;;5.40;3.30;;;;;;;22.52;48.43;102092.59;5071078;28;20100;-58
2021/06/09 05:51:45;;;;;;;4.75;2.90;;;;;;;22.54;48.38;102090.66;5070948;28;20151;-59
2021/06/09 05:54:10;;;;;;;5.00;3.50;;;;;;;22.51;48.47;102090.91;5071340;28;20101;-59
2021/06/09 05:56:36;;;;;;;4.53;3.20;;;;;;;22.54;48.43;102093.31;5071230;28;20460;-58
2021/06/09 05:59:01;;;;;;;5.90;3.53;;;;;;;22.55;48.35;102101.16;5070918;28;20020;-58
2021/06/09 06:01:29;;;;;;;4.88;3.00;;;;;;;22.55;48.28;102089.72;5071357;28;20023;-59
2021/06/09 06:03:55;;;;;;;5.70;3.55;;;;;;;22.57;48.26;102088.63;5070311;28;20376;-57
2021/06/09 06:06:24;;;;;;;4.78;3.60;;;;;;;22.58;48.66;102086.81;5071047;28;20897;-57
2021/06/09 06:08:49;;;;;;;4.45;3.25;;;;;;;22.58;48.82;102086.81;5071130;28;20020;-57
2021/06/09 06:11:15;;;;;;;5.97;3.40;;;;;;;22.59;49.18;102094.66;5070234;28;20104;-58
2021/06/09 06:13:43;;;;;;;5.72;4.43;;;;;;;22.61;49.15;102098.03;5071010;28;20036;-58
2021/06/09 06:16:13;;;;;;;7.63;5.35;;;;;;;22.62;49.46;102093.53;5070412;28;20025;-58
2021/06/09 06:18:41;;;;;;;5.85;4.57;;;;;;;22.64;49.57;102096.94;5070408;28;20063;-57
2021/06/09 06:21:08;;;;;;;7.30;5.60;;;;;;;22.66;49.53;102099.47;5071155;28;20083;-63
2021/06/09 06:23:35;;;;;;;6.88;5.88;;;;;;;22.67;49.72;102096.69;5071240;28;20040;-58
2021/06/09 06:26:01;;;;;;;7.95;6.57;;;;;;;22.69;49.84;102096.56;5071825;28;20028;-58
2021/06/09 06:28:27;;;;;;;8.95;7.20;;;;;;;22.71;49.99;102097.28;5074852;28;20078;-56
2021/06/09 06:30:53;;;;;;;10.20;7.80;;;;;;;22.73;50.19;102101.50;5074639;28;20020;-57
2021/06/09 06:33:23;;;;;;;9.73;8.18;;;;;;;22.73;50.38;102096.19;5073624;28;20077;-58
2021/06/09 06:35:49;;;;;;;11.82;8.90;;;;;;;22.74;50.43;102092.53;5075110;28;20054;-57
2021/06/09 06:38:15;;;;;;;12.07;10.10;;;;;;;22.71;50.04;102100.78;5074164;28;20460;-58
2021/06/09 06:40:42;;;;;;;11.88;10.50;;;;;;;22.71;49.97;102106.09;5073894;28;20035;-57
2021/06/09 06:43:08;;;;;;;14.43;12.57;;;;;;;22.70;50.11;102103.56;5074293;28;20043;-57
2021/06/09 06:45:38;;;;;;;13.00;11.60;;;;;;;22.68;50.32;102098.34;5074443;28;20384;-58
2021/06/09 06:48:04;;;;;;;14.55;13.05;;;;;;;22.67;50.28;102103.78;5073599;28;20029;-59
2021/06/09 06:50:30;;;;;;;15.60;13.48;;;;;;;22.67;50.49;102106.44;5074330;28;20032;-58
2021/06/09 06:52:55;;;;;;;16.50;13.52;;;;;;;22.64;50.65;102103.09;5073592;28;20024;-58
2021/06/09 06:55:25;;;;;;;15.50;13.15;;;;;;;22.67;50.96;102104.66;5073993;28;20342;-58
2021/06/09 06:57:53;;;;;;;15.43;13.77;;;;;;;22.66;50.66;102105.63;5074143;28;20108;-60
2021/06/09 07:00:23;;;;;;;14.85;12.50;;;;;;;22.67;50.72;102103.78;5073136;28;20039;-58
2021/06/09 07:02:54;;;;;;;15.77;13.07;;;;;;;22.68;50.71;102110.81;5072971;28;20112;-58
2021/06/09 07:05:20;;;;;;;13.82;12.07;;;;;;;22.65;50.92;102109.22;5074104;28;20464;-59
2021/06/09 07:07:47;;;;;;;16.65;12.82;;;;;;;22.68;51.02;102110.81;5073536;28;20410;-60
2021/06/09 07:10:17;;;;;;;14.52;12.60;;;;;;;22.70;50.86;102107.06;5075510;28;20069;-60
2021/06/09 07:12:44;;;;;;;14.73;12.50;;;;;;;22.71;51.36;102111.41;5075607;28;20027;-58
2021/06/09 07:15:12;;;;;;;14.68;12.38;;;;;;;22.71;51.30;102111.41;5074027;28;20437;-59
2021/06/09 07:17:39;;;;;;;14.43;12.60;;;;;;;22.73;51.64;102111.28;5074187;28;20055;-59
2021/06/09 07:20:10;;;;;;;13.50;12.10;;;;;;;22.73;51.58;102113.94;5076107;28;20027;-59
2021/06/09 07:22:37;;;;;;;13.68;11.48;;;;;;;22.73;51.57;102114.78;5073372;28;20009;-56
2021/06/09 07:25:07;;;;;;;14.40;12.60;;;;;;;22.75;52.10;102120.81;5075919;28;20028;-58
2021/06/09 07:27:35;;;;;;;16.08;12.70;;;;;;;22.73;52.11;102120.13;5073925;28;20021;-59
2021/06/09 07:30:02;;;;;;;15.02;13.40;;;;;;;22.73;52.09;102116.59;5073088;28;20376;-57
2021/06/09 07:32:28;;;;;;;15.15;13.55;;;;;;;22.74;51.57;102118.28;5074404;28;20027;-57
2021/06/09 07:34:53;;;;;;;14.77;12.68;;;;;;;22.72;51.15;102112.25;5075023;28;20032;-57
2021/06/09 07:37:21;;;;;;;15.23;11.65;;;;;;;22.71;51.03;102114.06;5073203;28;20039;-57
2021/06/09 07:39:53;;;;;;;14.70;12.40;;;;;;;22.70;50.81;102106.22;5074312;28;20040;-57
2021/06/09 07:43:27;;;;;;;14.35;12.85;;;;;;;22.67;50.91;102109.97;5078182;28;20056;-62
2021/06/09 07:45:57;;;;;;;13.05;10.95;;;;;;;22.72;50.81;102112.25;5051077;28;20044;-60
2021/06/09 07:48:25;;;;;;;12.80;11.40;;;;;;;22.73;50.80;102108.63;5084012;28;20040;-59
2021/06/09 07:50:54;;;;;;;14.40;11.40;;;;;;;22.78;50.74;102117.06;5073548;28;20028;-59
2021/06/09 07:53:21;;;;;;;11.38;10.18;;;;;;;22.80;50.83;102115.97;5074339;28;20074;-59
2021/06/09 07:55:47;;;;;;;11.75;10.10;;;;;;;22.83;50.58;102122.84;5074301;28;20024;-59
2021/06/09 07:58:20;;;;;;;11.13;9.65;;;;;;;22.83;50.77;102123.69;5072717;28;20032;-59
2021/06/09 08:00:47;;;;;;;11.45;9.85;;;;;;;22.88;50.69;102125.16;5073427;28;20033;-58
2021/06/09 08:03:13;;;;;;;11.10;9.75;;;;;;;22.89;50.41;102121.50;5072754;28;20210;-58
2021/06/09 08:05:40;;;;;;;11.25;8.93;;;;;;;22.91;50.56;102124.91;5073139;28;20021;-58
2021/06/09 08:08:06;;;;;;;10.85;9.60;;;;;;;22.92;50.61;102122.13;5072837;28;20049;-60
2021/06/09 08:10:32;;;;;;;11.18;10.00;;;;;;;22.94;50.78;102119.31;5072147;28;20043;-58
2021/06/09 08:12:58;;;;;;;12.13;9.35;;;;;;;22.93;50.88;102117.63;5072835;28;20017;-58
2021/06/09 08:15:24;;;;;;;11.55;9.98;;;;;;;22.97;50.89;102129.69;5072743;28;20052;-59
2021/06/09 08:17:50;;;;;;;11.20;9.45;;;;;;;22.97;50.95;102119.06;5072117;28;20051;-57
2021/06/09 08:20:18;;;;;;;12.25;9.77;;;;;;;22.99;51.20;102135.75;5072535;28;20020;-58
2021/06/09 08:22:44;;;;;;;12.55;10.05;;;;;;;22.99;51.27;102125.94;5072743;28;20107;-58
2021/06/09 08:25:13;;;;;;;14.50;9.98;;;;;;;22.98;50.99;102120.75;5071732;28;20114;-58
2021/06/09 08:27:39;;;;;;;13.45;9.57;;;;;;;22.97;51.18;102119.06;5072717;28;20022;-59
2021/06/09 08:30:06;;;;;;;14.57;9.73;;;;;;;23.01;51.21;102129.31;5072529;28;20032;-59
2021/06/09 08:32:32;;;;;;;12.23;9.98;;;;;;;23.02;51.14;102127.50;5072078;28;20024;-60
2021/06/09 08:34:57;;;;;;;11.63;9.75;;;;;;;23.04;51.20;102135.38;5073827;28;20031;-59
2021/06/09 08:37:22;;;;;;;10.93;9.82;;;;;;;23.06;51.12;102134.25;5073137;28;20530;-59
2021/06/09 08:39:47;;;;;;;12.03;8.40;;;;;;;23.07;51.18;102130.63;5072454;28;20028;-59
2021/06/09 08:42:13;;;;;;;10.32;9.15;;;;;;;23.09;51.11;102136.69;5071984;28;20314;-59
2021/06/09 08:44:41;;;;;;;10.07;8.52;;;;;;;23.11;51.12;102134.75;5073751;28;20071;-58
2021/06/09 08:47:09;;;;;;;11.93;8.85;;;;;;;23.15;51.06;102138.00;5071955;28;20029;-58
2021/06/09 08:49:36;;;;;;;9.18;8.15;;;;;;;23.13;51.00;102132.81;5072194;28;20028;-59
2021/06/09 08:52:03;;;;;;;9.75;8.38;;;;;;;23.15;51.16;102136.19;5072389;28;20040;-58
2021/06/09 08:54:29;;;;;;;9.02;7.93;;;;;;;23.15;51.05;102135.34;5071524;28;20035;-58
2021/06/09 08:56:57;;;;;;;10.95;8.68;;;;;;;23.15;51.25;102138.84;5072220;28;20032;-59
2021/06/09 08:59:24;;;;;;;12.40;8.85;;;;;;;23.15;51.20;102136.19;5072254;28;20027;-58
2021/06/09 09:01:49;;;;;;;10.85;9.18;;;;;;;23.14;51.00;102137.16;5071727;28;20013;-57
2021/06/09 09:04:15;;;;;;;9.88;7.93;;;;;;;23.15;50.86;102130.88;5072013;28;20027;-56
2021/06/09 09:06:40;;;;;;;9.63;7.22;;;;;;;23.15;50.73;102133.53;5071311;28;20041;-57
2021/06/09 09:09:08;;;;;;;9.13;7.88;;;;;;;23.15;50.92;102133.53;5071727;28;20396;-58
2021/06/09 09:11:34;;;;;;;9.18;7.15;;;;;;;23.16;50.85;102131.72;5072156;28;20060;-57
2021/06/09 09:14:00;;;;;;;11.27;6.93;;;;;;;23.16;50.93;102135.22;5071183;28;20044;-57
2021/06/09 09:16:25;;;;;;;9.50;7.32;;;;;;;23.15;50.98;102136.19;5071949;28;20024;-55
2021/06/09 09:19:00;;;;;;;8.48;7.15;;;;;;;23.15;51.22;102136.19;5072145;28;20029;-57
2021/06/09 09:21:39;;;;;;;7.40;6.30;;;;;;;23.17;51.21;102134.25;5070962;28;20031;-57
2021/06/09 09:24:09;;;;;;;7.93;6.97;;;;;;;23.16;50.77;102129.91;5071565;28;20020;-56
2021/06/09 09:26:36;;;;;;;8.98;7.07;;;;;;;23.17;50.37;102142.22;5071907;28;20062;-57
2021/06/09 09:29:22;;;;;;;8.82;7.30;;;;;;;23.19;50.52;102139.44;5071063;28;20028;-57
2021/06/09 09:31:59;;;;;;;9.25;7.38;;;;;;;23.19;50.49;102142.09;5072204;28;20099;-57
2021/06/09 09:34:33;;;;;;;9.43;7.25;;;;;;;23.20;50.17;102143.78;5071670;28;20036;-56
2021/06/09 09:37:27;;;;;;;10.35;7.70;;;;;;;23.20;50.19;102137.63;5071193;28;20029;-56
2021/06/09 09:40:14;;;;;;;8.90;6.85;;;;;;;23.20;50.06;102138.47;5067826;28;20037;-56
2021/06/09 09:42:40;;;;;;;10.48;7.65;;;;;;;23.20;49.88;102140.28;5071129;28;20395;-57
2021/06/09 09:45:34;;;;;;;9.77;7.32;;;;;;;23.19;49.87;102147.41;5071639;28;20464;-56
2021/06/09 09:48:15;;;;;;;8.05;6.65;;;;;;;23.17;50.26;102149.34;5070250;28;20125;-56
2021/06/09 09:50:45;;;;;;;10.40;7.50;;;;;;;23.20;50.05;102145.63;5071012;28;20082;-57
2021/06/09 09:53:26;;;;;;;8.13;6.70;;;;;;;23.20;50.19;102145.63;5071392;28;20017;-58
2021/06/09 09:56:17;;;;;;;8.43;6.65;;;;;;;23.21;50.40;102140.16;5070832;28;20028;-56
2021/06/09 09:58:53;;;;;;;8.35;6.43;;;;;;;23.21;50.18;102137.50;5071544;28;20106;-58
2021/06/09 10:01:18;;;;;;;8.32;6.43;;;;;;;23.22;50.27;102141.00;5074656;28;20103;-57
2021/06/09 10:03:56;;;;;;;11.33;6.87;;;;;;;23.22;50.35;102138.34;5074737;28;20140;-56
2021/06/09 10:06:33;;;;;;;8.77;6.07;;;;;;;23.23;50.40;102138.22;5075038;28;20579;-56
2021/06/09 10:09:18;;;;;;;7.50;6.47;;;;;;;23.23;50.23;102140.88;5075443;28;20112;-56
2021/06/09 10:12:05;;;;;;;8.82;6.78;;;;;;;23.21;50.31;102140.16;5074491;28;20123;-57
2021/06/09 10:14:41;;;;;;;8.20;6.40;;;;;;;23.19;50.19;102139.44;5074485;28;20113;-57
2021/06/09 10:17:18;;;;;;;7.80;5.70;;;;;;;23.17;50.26;102144.03;5074235;28;20133;-56
2021/06/09 10:19:56;;;;;;;7.43;5.97;;;;;;;23.16;50.05;102137.88;5075097;28;20491;-58
2021/06/09 10:22:25;;;;;;;7.00;5.50;;;;;;;23.15;50.29;102138.00;5074735;28;20510;-57
2021/06/09 10:25:08;;;;;;;7.80;6.28;;;;;;;23.16;50.25;102135.22;5074365;28;20024;-57
2021/06/09 10:27:38;;;;;;;8.05;6.25;;;;;;;23.15;51.16;102136.19;5075119;28;20052;-58
2021/06/09 10:30:22;;;;;;;7.47;5.70;;;;;;;23.15;52.24;102132.69;5074533;28;20559;-59
2021/06/09 10:33:04;;;;;;;7.90;5.82;;;;;;;23.13;52.07;102129.28;5074024;28;20029;-59
2021/06/09 10:35:34;;;;;;;6.72;5.75;;;;;;;23.14;51.70;102126.50;5075059;28;20039;-58
2021/06/09 10:38:02;;;;;;;7.90;5.50;;;;;;;23.16;51.14;102119.28;5073854;28;20025;-58
2021/06/09 10:40:30;;;;;;;7.65;5.70;;;;;;;23.15;51.11;102122.06;5074510;28;20476;-59
2021/06/09 10:42:59;;;;;;;7.50;5.63;;;;;;;23.13;50.75;102122.19;5074671;28;20024;-59
2021/06/09 10:45:25;;;;;;;8.20;6.25;;;;;;;23.12;50.99;102128.47;5073456;28;20413;-54
2021/06/09 10:47:56;;;;;;;8.43;5.82;;;;;;;23.15;50.73;102127.38;5074785;28;20116;-57
2021/06/09 10:50:25;;;;;;;7.78;5.82;;;;;;;23.16;50.72;102124.59;5074387;28;20576;-58
2021/06/09 10:52:51;;;;;;;7.93;5.97;;;;;;;23.14;48.82;102129.16;5073834;28;20476;-58
2021/06/09 10:55:17;;;;;;;8.63;6.43;;;;;;;23.14;49.68;102118.53;5074202;28;20025;-58
2021/06/09 10:57:48;;;;;;;8.63;5.72;;;;;;;23.15;50.02;102122.06;5074205;28;20388;-58
2021/06/09 11:00:15;;;;;;;7.15;5.53;;;;;;;23.13;49.97;102116.88;5073612;28;20021;-55
2021/06/09 11:02:42;;;;;;;6.97;5.28;;;;;;;23.18;50.32;102119.97;5074353;28;20078;-58
2021/06/09 11:05:11;;;;;;;7.28;4.90;;;;;;;23.22;50.43;102120.56;5073871;28;20020;-57
2021/06/09 11:07:39;;;;;;;6.35;5.20;;;;;;;23.22;50.56;102127.72;5073157;28;20119;-59
2021/06/09 11:10:15;;;;;;;8.80;5.30;;;;;;;23.21;50.75;102113.56;5073736;28;20036;-57
2021/06/09 11:12:50;;;;;;;7.22;5.22;;;;;;;23.24;50.30;102117.78;5073595;28;20036;-57
2021/06/09 11:15:21;;;;;;;6.70;4.93;;;;;;;23.26;50.19;102121.19;5073150;28;20028;-57
2021/06/09 11:17:52;;;;;;;6.10;4.70;;;;;;;23.26;50.24;102107.88;5074154;28;20028;-57
2021/06/09 11:20:25;;;;;;;6.20;5.13;;;;;;;23.27;50.21;102113.03;5073056;28;20036;-57
2021/06/09 11:22:53;;;;;;;6.78;5.13;;;;;;;23.27;50.08;102115.69;5073967;28;20028;-58
2021/06/09 11:25:23;;;;;;;7.00;4.72;;;;;;;23.25;50.22;102116.81;5073562;28;20372;-57
2021/06/09 11:27:53;;;;;;;7.53;5.38;;;;;;;23.22;50.28;102117.06;5073431;28;20040;-57
2021/06/09 11:30:45;;;;;;;5.93;4.82;;;;;;;23.19;50.32;102115.50;5073648;28;20016;-58
2021/06/09 11:33:28;;;;;;;6.32;5.13;;;;;;;23.17;50.34;102106.81;5073374;28;20036;-57
2021/06/09 11:35:57;;;;;;;6.85;5.15;;;;;;;23.18;50.14;102100.53;5074169;28;20226;-57